sensor_id;sensor_type;location;lat;lon;timestamp;pressure;altitude;pressure_sealevel;temperature;humidity
24154;BME280;12312;53.362;-1.518;2023-03-20T00:02:44;57923.84;;;-139.99;100.00
24154;BME280;12312;53.362;-1.518;2023-03-20T00:05:29;57923.84;;;-139.99;100.00
24154;BME280;12312;53.362;-1.518;2023-03-20T00:08:14;57923.84;;;-139.99;100.00
24154;BME280;12312;53.362;-1.518;2023-03-20T00:10:58;57923.84;;;-139.99;100.00
24154;BME280;12312;53.362;-1.518;2023-03-20T00:13:42;57923.84;;;-139.99;100.00
24154;BME280;12312;53.362;-1.518;2023-03-20T00:16:33;57923.84;;;-139.99;100.00
24154;BME280;12312;53.362;-1.518;2023-03-20T00:19:21;57923.84;;;-139.99;100.00
24154;BME280;12312;53.362;-1.518;2023-03-20T00:22:14;57923.84;;;-139.99;100.00
24154;BME280;12312;53.362;-1.518;2023-03-20T00:24:59;57923.84;;;-139.99;100.00
24154;BME280;12312;53.362;-1.518;2023-03-20T00:27:43;57923.84;;;-139.99;100.00
24154;BME280;12312;53.362;-1.518;2023-03-20T00:30:28;57923.84;;;-139.99;100.00
24154;BME280;12312;53.362;-1.518;2023-03-20T00:33:13;57923.84;;;-139.99;100.00
24154;BME280;12312;53.362;-1.518;2023-03-20T00:35:57;57923.84;;;-139.99;100.00
24154;BME280;12312;53.362;-1.518;2023-03-20T00:38:41;57923.84;;;-139.99;100.00
24154;BME280;12312;53.362;-1.518;2023-03-20T00:44:27;57923.84;;;-139.99;100.00
24154;BME280;12312;53.362;-1.518;2023-03-20T00:47:18;57923.84;;;-139.99;100.00
24154;BME280;12312;53.362;-1.518;2023-03-20T00:50:22;57923.84;;;-139.99;100.00
24154;BME280;12312;53.362;-1.518;2023-03-20T00:53:09;57923.84;;;-139.99;100.00
24154;BME280;12312;53.362;-1.518;2023-03-20T00:55:53;57923.84;;;-139.99;100.00
24154;BME280;12312;53.362;-1.518;2023-03-20T00:58:37;57923.84;;;-139.99;100.00
24154;BME280;12312;53.362;-1.518;2023-03-20T01:01:21;57923.84;;;-139.99;100.00
24154;BME280;12312;53.362;-1.518;2023-03-20T01:04:10;57923.84;;;-139.99;100.00
24154;BME280;12312;53.362;-1.518;2023-03-20T01:06:55;57923.84;;;-139.99;100.00
24154;BME280;12312;53.362;-1.518;2023-03-20T01:09:39;57923.84;;;-139.99;100.00
24154;BME280;12312;53.362;-1.518;2023-03-20T01:12:24;57923.84;;;-139.99;100.00
24154;BME280;12312;53.362;-1.518;2023-03-20T01:15:16;57923.84;;;-139.99;100.00
24154;BME280;12312;53.362;-1.518;2023-03-20T01:18:01;57923.84;;;-139.99;100.00
24154;BME280;12312;53.362;-1.518;2023-03-20T01:20:45;57923.84;;;-139.99;100.00
24154;BME280;12312;53.362;-1.518;2023-03-20T01:23:29;57923.84;;;-139.99;100.00
24154;BME280;12312;53.362;-1.518;2023-03-20T01:26:34;57923.84;;;-139.99;100.00
24154;BME280;12312;53.362;-1.518;2023-03-20T01:32:12;57923.84;;;-139.99;100.00
24154;BME280;12312;53.362;-1.518;2023-03-20T01:34:56;57923.84;;;-139.99;100.00
24154;BME280;12312;53.362;-1.518;2023-03-20T01:37:42;57923.84;;;-139.99;100.00
24154;BME280;12312;53.362;-1.518;2023-03-20T01:40:32;57923.84;;;-139.99;100.00
24154;BME280;12312;53.362;-1.518;2023-03-20T01:43:22;57923.84;;;-139.99;100.00
24154;BME280;12312;53.362;-1.518;2023-03-20T01:52:04;57923.84;;;-139.99;100.00
24154;BME280;12312;53.362;-1.518;2023-03-20T01:54:48;57923.84;;;-139.99;100.00
24154;BME280;12312;53.362;-1.518;2023-03-20T01:57:33;57923.84;;;-139.99;100.00
24154;BME280;12312;53.362;-1.518;2023-03-20T02:00:18;57923.84;;;-139.99;100.00
24154;BME280;12312;53.362;-1.518;2023-03-20T02:03:05;57923.84;;;-139.99;100.00
24154;BME280;12312;53.362;-1.518;2023-03-20T02:05:49;57923.84;;;-139.99;100.00
24154;BME280;12312;53.362;-1.518;2023-03-20T02:08:41;57923.84;;;-139.99;100.00
24154;BME280;12312;53.362;-1.518;2023-03-20T02:11:25;57923.84;;;-139.99;100.00
24154;BME280;12312;53.362;-1.518;2023-03-20T02:14:10;57923.84;;;-139.99;100.00
24154;BME280;12312;53.362;-1.518;2023-03-20T02:16:55;57923.84;;;-139.99;100.00
24154;BME280;12312;53.362;-1.518;2023-03-20T02:19:53;57923.84;;;-139.99;100.00
24154;BME280;12312;53.362;-1.518;2023-03-20T02:40:41;98918.03;;;7.39;100.00
24154;BME280;12312;53.362;-1.518;2023-03-20T02:59:06;98910.63;;;7.71;100.00
24154;BME280;12312;53.362;-1.518;2023-03-20T03:02:09;98907.06;;;7.84;100.00
24154;BME280;12312;53.362;-1.518;2023-03-20T03:04:59;98911.84;;;7.79;100.00
24154;BME280;12312;53.362;-1.518;2023-03-20T03:07:45;98902.31;;;7.89;100.00
24154;BME280;12312;53.362;-1.518;2023-03-20T03:10:40;98905.53;;;7.94;100.00
24154;BME280;12312;53.362;-1.518;2023-03-20T03:13:29;98888.03;;;8.04;100.00
24154;BME280;12312;53.362;-1.518;2023-03-20T03:16:20;98890.47;;;8.07;100.00
24154;BME280;12312;53.362;-1.518;2023-03-20T03:19:12;98889.19;;;7.88;100.00
24154;BME280;12312;53.362;-1.518;2023-03-20T03:21:59;98887.50;;;7.99;100.00
24154;BME280;12312;53.362;-1.518;2023-03-20T03:24:46;98895.91;;;8.18;100.00
24154;BME280;12312;53.362;-1.518;2023-03-20T03:27:36;98893.88;;;8.09;100.00
24154;BME280;12312;53.362;-1.518;2023-03-20T03:30:27;98882.91;;;7.89;100.00
24154;BME280;12312;53.362;-1.518;2023-03-20T03:33:21;98890.91;;;8.01;100.00
24154;BME280;12312;53.362;-1.518;2023-03-20T03:42:04;98876.84;;;7.74;100.00
24154;BME280;12312;53.362;-1.518;2023-03-20T03:45:02;98868.84;;;7.88;100.00
24154;BME280;12312;53.362;-1.518;2023-03-20T03:47:52;98871.28;;;7.91;100.00
24154;BME280;12312;53.362;-1.518;2023-03-20T03:50:42;98880.94;;;8.17;100.00
24154;BME280;12312;53.362;-1.518;2023-03-20T03:53:34;98878.34;;;7.78;100.00
24154;BME280;12312;53.362;-1.518;2023-03-20T03:56:22;98869.50;;;8.04;100.00
24154;BME280;12312;53.362;-1.518;2023-03-20T03:59:12;98860.38;;;7.96;100.00
24154;BME280;12312;53.362;-1.518;2023-03-20T04:02:00;98857.63;;;7.97;100.00
24154;BME280;12312;53.362;-1.518;2023-03-20T04:04:49;98850.41;;;7.99;100.00
24154;BME280;12312;53.362;-1.518;2023-03-20T04:07:34;98856.22;;;7.92;100.00
24154;BME280;12312;53.362;-1.518;2023-03-20T04:10:19;98852.13;;;8.00;100.00
24154;BME280;12312;53.362;-1.518;2023-03-20T04:13:03;98854.09;;;8.23;100.00
24154;BME280;12312;53.362;-1.518;2023-03-20T04:15:47;98846.91;;;8.11;100.00
24154;BME280;12312;53.362;-1.518;2023-03-20T04:18:31;98845.31;;;7.84;100.00
24154;BME280;12312;53.362;-1.518;2023-03-20T04:21:16;98845.72;;;7.90;100.00
24154;BME280;12312;53.362;-1.518;2023-03-20T04:24:00;98836.84;;;8.04;100.00
24154;BME280;12312;53.362;-1.518;2023-03-20T04:26:44;98840.66;;;8.00;100.00
24154;BME280;12312;53.362;-1.518;2023-03-20T04:29:28;98835.34;;;7.87;100.00
24154;BME280;12312;53.362;-1.518;2023-03-20T04:32:12;98838.97;;;8.11;100.00
24154;BME280;12312;53.362;-1.518;2023-03-20T04:34:56;98839.81;;;8.12;100.00
24154;BME280;12312;53.362;-1.518;2023-03-20T04:37:40;98843.47;;;8.23;100.00
24154;BME280;12312;53.362;-1.518;2023-03-20T04:40:24;98845.16;;;8.37;100.00
24154;BME280;12312;53.362;-1.518;2023-03-20T04:43:09;98840.44;;;7.78;100.00
24154;BME280;12312;53.362;-1.518;2023-03-20T04:45:53;98839.38;;;7.93;100.00
24154;BME280;12312;53.362;-1.518;2023-03-20T04:48:37;98840.47;;;8.15;100.00
24154;BME280;12312;53.362;-1.518;2023-03-20T04:51:21;98836.25;;;8.25;100.00
24154;BME280;12312;53.362;-1.518;2023-03-20T04:54:06;98836.34;;;8.24;100.00
24154;BME280;12312;53.362;-1.518;2023-03-20T04:56:49;98843.81;;;7.92;100.00
24154;BME280;12312;53.362;-1.518;2023-03-20T04:59:33;98837.91;;;8.01;100.00
24154;BME280;12312;53.362;-1.518;2023-03-20T05:02:17;98844.88;;;8.02;100.00
24154;BME280;12312;53.362;-1.518;2023-03-20T05:05:02;98846.81;;;8.00;100.00
24154;BME280;12312;53.362;-1.518;2023-03-20T05:07:46;98841.00;;;8.33;100.00
24154;BME280;12312;53.362;-1.518;2023-03-20T05:10:30;98839.44;;;8.30;100.00
24154;BME280;12312;53.362;-1.518;2023-03-20T05:13:14;98835.50;;;8.48;100.00
24154;BME280;12312;53.362;-1.518;2023-03-20T05:15:58;98835.41;;;8.37;100.00
24154;BME280;12312;53.362;-1.518;2023-03-20T05:18:43;98840.47;;;8.65;100.00
24154;BME280;12312;53.362;-1.518;2023-03-20T05:21:27;98832.81;;;8.73;100.00
24154;BME280;12312;53.362;-1.518;2023-03-20T05:24:11;98841.34;;;8.41;100.00
24154;BME280;12312;53.362;-1.518;2023-03-20T05:26:55;98842.25;;;8.65;100.00
24154;BME280;12312;53.362;-1.518;2023-03-20T05:29:39;98846.00;;;8.62;100.00
24154;BME280;12312;53.362;-1.518;2023-03-20T05:32:23;98843.56;;;8.59;100.00
24154;BME280;12312;53.362;-1.518;2023-03-20T05:35:09;98839.50;;;8.54;100.00
24154;BME280;12312;53.362;-1.518;2023-03-20T05:37:53;98839.41;;;8.55;100.00
24154;BME280;12312;53.362;-1.518;2023-03-20T05:40:37;98842.63;;;8.23;100.00
24154;BME280;12312;53.362;-1.518;2023-03-20T05:43:21;98836.25;;;8.25;100.00
24154;BME280;12312;53.362;-1.518;2023-03-20T05:46:05;98835.00;;;8.31;100.00
24154;BME280;12312;53.362;-1.518;2023-03-20T05:48:49;98834.13;;;8.30;100.00
24154;BME280;12312;53.362;-1.518;2023-03-20T05:51:34;98835.41;;;8.37;100.00
24154;BME280;12312;53.362;-1.518;2023-03-20T05:54:18;98833.44;;;8.64;100.00
24154;BME280;12312;53.362;-1.518;2023-03-20T05:57:02;98828.41;;;8.36;100.00
24154;BME280;12312;53.362;-1.518;2023-03-20T05:59:46;98831.38;;;8.44;100.00
24154;BME280;12312;53.362;-1.518;2023-03-20T06:02:30;98830.94;;;8.50;100.00
24154;BME280;12312;53.362;-1.518;2023-03-20T06:05:14;98838.31;;;8.70;100.00
24154;BME280;12312;53.362;-1.518;2023-03-20T06:07:58;98839.72;;;8.63;100.00
24154;BME280;12312;53.362;-1.518;2023-03-20T06:10:43;98835.22;;;8.28;100.00
24154;BME280;12312;53.362;-1.518;2023-03-20T06:13:27;98845.13;;;8.49;100.00
24154;BME280;12312;53.362;-1.518;2023-03-20T06:16:11;98838.91;;;8.50;100.00
24154;BME280;12312;53.362;-1.518;2023-03-20T06:18:55;98844.69;;;8.80;100.00
24154;BME280;12312;53.362;-1.518;2023-03-20T06:21:39;98841.78;;;8.47;100.00
24154;BME280;12312;53.362;-1.518;2023-03-20T06:24:23;98830.41;;;8.45;100.00
24154;BME280;12312;53.362;-1.518;2023-03-20T06:27:07;98843.63;;;8.70;100.00
24154;BME280;12312;53.362;-1.518;2023-03-20T06:29:52;98840.91;;;8.59;100.00
24154;BME280;12312;53.362;-1.518;2023-03-20T06:32:36;98847.91;;;8.23;100.00
24154;BME280;12312;53.362;-1.518;2023-03-20T06:35:20;98852.75;;;8.66;100.00
24154;BME280;12312;53.362;-1.518;2023-03-20T06:38:04;98847.66;;;8.76;100.00
24154;BME280;12312;53.362;-1.518;2023-03-20T06:40:48;98847.47;;;8.54;100.00
24154;BME280;12312;53.362;-1.518;2023-03-20T06:43:32;98853.84;;;8.39;100.00
24154;BME280;12312;53.362;-1.518;2023-03-20T06:46:15;98862.75;;;8.25;100.00
24154;BME280;12312;53.362;-1.518;2023-03-20T06:48:59;98857.63;;;8.10;100.00
24154;BME280;12312;53.362;-1.518;2023-03-20T06:51:44;98862.38;;;8.17;100.00
24154;BME280;12312;53.362;-1.518;2023-03-20T06:54:30;98873.56;;;8.60;100.00
24154;BME280;12312;53.362;-1.518;2023-03-20T06:57:14;98863.81;;;8.60;100.00
24154;BME280;12312;53.362;-1.518;2023-03-20T07:00:00;98859.59;;;8.45;100.00
24154;BME280;12312;53.362;-1.518;2023-03-20T07:02:44;98860.59;;;8.93;100.00
24154;BME280;12312;53.362;-1.518;2023-03-20T07:05:28;98862.00;;;8.73;100.00
24154;BME280;12312;53.362;-1.518;2023-03-20T07:08:12;98866.88;;;8.79;100.00
24154;BME280;12312;53.362;-1.518;2023-03-20T07:10:58;98871.78;;;8.35;100.00
24154;BME280;12312;53.362;-1.518;2023-03-20T07:13:42;98877.81;;;8.75;100.00
24154;BME280;12312;53.362;-1.518;2023-03-20T07:16:26;98882.69;;;8.68;100.00
24154;BME280;12312;53.362;-1.518;2023-03-20T07:19:10;98881.84;;;8.80;100.00
24154;BME280;12312;53.362;-1.518;2023-03-20T07:21:59;98886.25;;;8.92;100.00
24154;BME280;12312;53.362;-1.518;2023-03-20T07:24:45;98895.00;;;9.18;100.00
24154;BME280;12312;53.362;-1.518;2023-03-20T07:27:29;98888.97;;;9.16;100.00
24154;BME280;12312;53.362;-1.518;2023-03-20T07:30:13;98880.31;;;9.01;100.00
24154;BME280;12312;53.362;-1.518;2023-03-20T07:32:58;98886.94;;;8.58;100.00
24154;BME280;12312;53.362;-1.518;2023-03-20T07:35:42;98890.34;;;8.73;100.00
24154;BME280;12312;53.362;-1.518;2023-03-20T07:38:26;98887.41;;;9.01;100.00
24154;BME280;12312;53.362;-1.518;2023-03-20T07:41:10;98880.59;;;9.10;100.00
24154;BME280;12312;53.362;-1.518;2023-03-20T07:43:54;98875.34;;;9.21;100.00
24154;BME280;12312;53.362;-1.518;2023-03-20T07:46:39;98873.66;;;9.20;100.00
24154;BME280;12312;53.362;-1.518;2023-03-20T07:49:23;98871.31;;;9.28;100.00
24154;BME280;12312;53.362;-1.518;2023-03-20T07:52:07;98872.97;;;9.41;100.00
24154;BME280;12312;53.362;-1.518;2023-03-20T07:54:51;98881.91;;;9.40;100.00
24154;BME280;12312;53.362;-1.518;2023-03-20T07:57:35;98872.91;;;9.54;100.00
24154;BME280;12312;53.362;-1.518;2023-03-20T08:00:19;98877.13;;;9.56;100.00
24154;BME280;12312;53.362;-1.518;2023-03-20T08:03:04;98870.50;;;9.62;100.00
24154;BME280;12312;53.362;-1.518;2023-03-20T08:05:48;98869.16;;;9.56;100.00
24154;BME280;12312;53.362;-1.518;2023-03-20T08:08:33;98863.50;;;9.61;100.00
24154;BME280;12312;53.362;-1.518;2023-03-20T08:11:18;98863.69;;;9.70;100.00
24154;BME280;12312;53.362;-1.518;2023-03-20T08:14:02;98868.88;;;9.72;100.00
24154;BME280;12312;53.362;-1.518;2023-03-20T08:16:46;98870.63;;;9.60;100.00
24154;BME280;12312;53.362;-1.518;2023-03-20T08:19:30;98868.09;;;9.59;100.00
24154;BME280;12312;53.362;-1.518;2023-03-20T08:22:14;98870.16;;;9.55;100.00
24154;BME280;12312;53.362;-1.518;2023-03-20T08:24:58;98869.06;;;9.58;100.00
24154;BME280;12312;53.362;-1.518;2023-03-20T08:27:42;98876.72;;;9.50;100.00
24154;BME280;12312;53.362;-1.518;2023-03-20T08:30:26;98878.94;;;9.56;100.00
24154;BME280;12312;53.362;-1.518;2023-03-20T08:33:10;98870.97;;;9.56;100.00
24154;BME280;12312;53.362;-1.518;2023-03-20T08:35:56;98871.38;;;9.62;100.00
24154;BME280;12312;53.362;-1.518;2023-03-20T08:38:41;98872.16;;;9.75;100.00
24154;BME280;12312;53.362;-1.518;2023-03-20T08:41:25;98870.41;;;9.87;100.00
24154;BME280;12312;53.362;-1.518;2023-03-20T08:44:10;98872.81;;;9.90;100.00
24154;BME280;12312;53.362;-1.518;2023-03-20T08:46:54;98882.47;;;9.91;100.00
24154;BME280;12312;53.362;-1.518;2023-03-20T08:49:39;98875.19;;;10.05;100.00
24154;BME280;12312;53.362;-1.518;2023-03-20T08:52:23;98880.41;;;10.18;100.00
24154;BME280;12312;53.362;-1.518;2023-03-20T08:55:08;98881.44;;;10.28;100.00
24154;BME280;12312;53.362;-1.518;2023-03-20T08:57:52;98876.84;;;10.41;100.00
24154;BME280;12312;53.362;-1.518;2023-03-20T09:00:37;98883.16;;;10.62;100.00
24154;BME280;12312;53.362;-1.518;2023-03-20T09:03:21;98885.00;;;10.61;100.00
24154;BME280;12312;53.362;-1.518;2023-03-20T09:06:06;98878.19;;;10.57;100.00
24154;BME280;12312;53.362;-1.518;2023-03-20T09:08:53;98887.31;;;10.66;100.00
24154;BME280;12312;53.362;-1.518;2023-03-20T09:11:37;98879.78;;;10.71;100.00
24154;BME280;12312;53.362;-1.518;2023-03-20T09:14:22;98880.63;;;10.71;100.00
24154;BME280;12312;53.362;-1.518;2023-03-20T09:17:07;98893.97;;;10.82;100.00
24154;BME280;12312;53.362;-1.518;2023-03-20T09:19:51;98889.25;;;10.86;100.00
24154;BME280;12312;53.362;-1.518;2023-03-20T09:22:35;98889.25;;;10.86;100.00
24154;BME280;12312;53.362;-1.518;2023-03-20T09:25:18;98892.00;;;10.96;100.00
24154;BME280;12312;53.362;-1.518;2023-03-20T09:28:03;98895.66;;;11.06;100.00
24154;BME280;12312;53.362;-1.518;2023-03-20T09:30:47;98892.50;;;11.01;100.00
24154;BME280;12312;53.362;-1.518;2023-03-20T09:33:31;98894.81;;;11.05;100.00
24154;BME280;12312;53.362;-1.518;2023-03-20T09:36:15;98891.66;;;11.11;100.00
24154;BME280;12312;53.362;-1.518;2023-03-20T09:39:00;98899.88;;;11.08;100.00
24154;BME280;12312;53.362;-1.518;2023-03-20T09:41:48;98895.41;;;10.87;100.00
24154;BME280;12312;53.362;-1.518;2023-03-20T09:45:02;98903.28;;;11.10;100.00
24154;BME280;12312;53.362;-1.518;2023-03-20T09:54:06;98904.97;;;11.11;100.00
24154;BME280;12312;53.362;-1.518;2023-03-20T09:56:56;98901.81;;;11.06;100.00
24154;BME280;12312;53.362;-1.518;2023-03-20T09:59:40;98897.47;;;11.16;100.00
24154;BME280;12312;53.362;-1.518;2023-03-20T10:02:55;98902.06;;;11.25;100.00
24154;BME280;12312;53.362;-1.518;2023-03-20T10:05:48;98914.28;;;11.28;100.00
24154;BME280;12312;53.362;-1.518;2023-03-20T10:08:35;98919.97;;;11.45;100.00
24154;BME280;12312;53.362;-1.518;2023-03-20T10:17:46;98918.81;;;11.70;100.00
24154;BME280;12312;53.362;-1.518;2023-03-20T10:20:47;98913.47;;;11.70;100.00
24154;BME280;12312;53.362;-1.518;2023-03-20T10:24:51;98922.47;;;11.69;100.00
24154;BME280;12312;53.362;-1.518;2023-03-20T10:30:21;98936.50;;;11.60;100.00
24154;BME280;12312;53.362;-1.518;2023-03-20T10:36:11;98949.22;;;11.78;100.00
24154;BME280;12312;53.362;-1.518;2023-03-20T10:42:02;98945.69;;;11.89;100.00
24154;BME280;12312;53.362;-1.518;2023-03-20T10:44:57;98946.59;;;11.67;100.00
24154;BME280;12312;53.362;-1.518;2023-03-20T10:47:44;98936.41;;;11.72;100.00
24154;BME280;12312;53.362;-1.518;2023-03-20T10:50:44;98931.19;;;11.71;100.00
24154;BME280;12312;53.362;-1.518;2023-03-20T10:53:38;98922.97;;;11.94;100.00
24154;BME280;12312;53.362;-1.518;2023-03-20T10:56:29;98919.25;;;12.17;100.00
24154;BME280;12312;53.362;-1.518;2023-03-20T10:59:33;98919.81;;;12.00;100.00
24154;BME280;12312;53.362;-1.518;2023-03-20T11:02:23;98920.25;;;12.37;100.00
24154;BME280;12312;53.362;-1.518;2023-03-20T11:08:15;98909.75;;;12.24;100.00
24154;BME280;12312;53.362;-1.518;2023-03-20T11:11:00;98917.38;;;12.29;100.00
24154;BME280;12312;53.362;-1.518;2023-03-20T11:13:44;98908.94;;;12.24;100.00
24154;BME280;12312;53.362;-1.518;2023-03-20T11:16:33;98914.09;;;12.36;100.00
24154;BME280;12312;53.362;-1.518;2023-03-20T11:19:21;98908.41;;;12.30;100.00
24154;BME280;12312;53.362;-1.518;2023-03-20T11:22:28;98911.47;;;12.25;100.00
24154;BME280;12312;53.362;-1.518;2023-03-20T11:25:33;98894.00;;;12.21;100.00
24154;BME280;12312;53.362;-1.518;2023-03-20T11:28:41;98895.84;;;12.41;100.00
24154;BME280;12312;53.362;-1.518;2023-03-20T11:31:37;98883.22;;;12.43;100.00
24154;BME280;12312;53.362;-1.518;2023-03-20T11:34:24;98883.94;;;12.45;100.00
24154;BME280;12312;53.362;-1.518;2023-03-20T11:37:24;98877.00;;;12.33;100.00
24154;BME280;12312;53.362;-1.518;2023-03-20T11:45:57;98891.75;;;12.37;100.00
24154;BME280;12312;53.362;-1.518;2023-03-20T11:48:43;98886.97;;;12.62;100.00
24154;BME280;12312;53.362;-1.518;2023-03-20T11:51:28;98884.97;;;12.54;100.00
24154;BME280;12312;53.362;-1.518;2023-03-20T11:54:19;98886.09;;;12.51;100.00
24154;BME280;12312;53.362;-1.518;2023-03-20T11:57:05;98886.22;;;12.29;100.00
24154;BME280;12312;53.362;-1.518;2023-03-20T11:59:49;98898.44;;;12.52;100.00
24154;BME280;12312;53.362;-1.518;2023-03-20T12:02:34;98894.16;;;12.40;100.00
24154;BME280;12312;53.362;-1.518;2023-03-20T12:05:29;98896.78;;;12.51;100.00
24154;BME280;12312;53.362;-1.518;2023-03-20T12:08:15;98887.69;;;12.43;100.00
24154;BME280;12312;53.362;-1.518;2023-03-20T12:11:13;98888.28;;;12.46;100.00
24154;BME280;12312;53.362;-1.518;2023-03-20T12:14:05;98893.31;;;12.40;100.00
24154;BME280;12312;53.362;-1.518;2023-03-20T12:16:58;98886.88;;;12.42;100.00
24154;BME280;12312;53.362;-1.518;2023-03-20T12:19:45;98886.88;;;12.42;100.00
24154;BME280;12312;53.362;-1.518;2023-03-20T12:22:36;98879.22;;;12.58;100.00
24154;BME280;12312;53.362;-1.518;2023-03-20T12:25:25;98879.22;;;12.58;100.00
24154;BME280;12312;53.362;-1.518;2023-03-20T12:34:34;98879.53;;;13.16;100.00
24154;BME280;12312;53.362;-1.518;2023-03-20T12:37:20;76037.66;;;13.58;100.00
24154;BME280;12312;53.362;-1.518;2023-03-20T12:40:14;57923.84;;;-139.99;100.00
24154;BME280;12312;53.362;-1.518;2023-03-20T12:43:04;57923.84;;;-139.99;100.00
24154;BME280;12312;53.362;-1.518;2023-03-20T12:46:16;57923.84;;;-139.99;100.00
24154;BME280;12312;53.362;-1.518;2023-03-20T12:58:24;57923.84;;;-139.99;100.00
24154;BME280;12312;53.362;-1.518;2023-03-20T13:01:19;57923.84;;;-139.99;100.00
24154;BME280;12312;53.362;-1.518;2023-03-20T13:04:18;57923.84;;;-139.99;100.00
24154;BME280;12312;53.362;-1.518;2023-03-20T13:07:17;57923.84;;;-139.99;100.00
24154;BME280;12312;53.362;-1.518;2023-03-20T13:10:20;57923.84;;;-139.99;100.00
24154;BME280;12312;53.362;-1.518;2023-03-20T13:18:56;57923.84;;;-139.99;100.00
24154;BME280;12312;53.362;-1.518;2023-03-20T13:28:09;57923.84;;;-139.99;100.00
24154;BME280;12312;53.362;-1.518;2023-03-20T13:31:01;57923.84;;;-139.99;100.00
24154;BME280;12312;53.362;-1.518;2023-03-20T13:33:57;57923.84;;;-139.99;100.00
24154;BME280;12312;53.362;-1.518;2023-03-20T13:40:13;57923.84;;;-139.99;100.00
24154;BME280;12312;53.362;-1.518;2023-03-20T13:43:18;57923.84;;;-139.99;100.00
24154;BME280;12312;53.362;-1.518;2023-03-20T13:46:09;57923.84;;;-139.99;100.00
24154;BME280;12312;53.362;-1.518;2023-03-20T13:48:57;57923.84;;;-139.99;100.00
24154;BME280;12312;53.362;-1.518;2023-03-20T13:51:51;57923.84;;;-139.99;100.00
24154;BME280;12312;53.362;-1.518;2023-03-20T13:54:59;57923.84;;;-139.99;100.00
24154;BME280;12312;53.362;-1.518;2023-03-20T13:58:13;57923.84;;;-139.99;100.00
24154;BME280;12312;53.362;-1.518;2023-03-20T14:03:53;57923.84;;;-139.99;100.00
24154;BME280;12312;53.362;-1.518;2023-03-20T14:06:48;57923.84;;;-139.99;100.00
24154;BME280;12312;53.362;-1.518;2023-03-20T14:09:35;57923.84;;;-139.99;100.00
24154;BME280;12312;53.362;-1.518;2023-03-20T14:12:23;57923.84;;;-139.99;100.00
24154;BME280;12312;53.362;-1.518;2023-03-20T14:15:10;57923.84;;;-139.99;100.00
24154;BME280;12312;53.362;-1.518;2023-03-20T14:17:55;57923.84;;;-139.99;100.00
24154;BME280;12312;53.362;-1.518;2023-03-20T14:20:41;57923.84;;;-139.99;100.00
24154;BME280;12312;53.362;-1.518;2023-03-20T14:23:37;57923.84;;;-139.99;100.00
24154;BME280;12312;53.362;-1.518;2023-03-20T14:26:25;57923.84;;;-139.99;100.00
24154;BME280;12312;53.362;-1.518;2023-03-20T14:35:25;57923.84;;;-139.99;100.00
24154;BME280;12312;53.362;-1.518;2023-03-20T14:41:07;57923.84;;;-139.99;100.00
24154;BME280;12312;53.362;-1.518;2023-03-20T14:47:04;57923.84;;;-139.99;100.00
24154;BME280;12312;53.362;-1.518;2023-03-20T14:49:54;57923.84;;;-139.99;100.00
24154;BME280;12312;53.362;-1.518;2023-03-20T15:04:40;57923.84;;;-139.99;100.00
24154;BME280;12312;53.362;-1.518;2023-03-20T15:07:30;57923.84;;;-139.99;100.00
24154;BME280;12312;53.362;-1.518;2023-03-20T15:10:17;57923.84;;;-139.99;100.00
24154;BME280;12312;53.362;-1.518;2023-03-20T15:13:04;57923.84;;;-139.99;100.00
24154;BME280;12312;53.362;-1.518;2023-03-20T15:16:06;57923.84;;;-139.99;100.00
24154;BME280;12312;53.362;-1.518;2023-03-20T15:18:52;57923.84;;;-139.99;100.00
24154;BME280;12312;53.362;-1.518;2023-03-20T15:21:38;57923.84;;;-139.99;100.00
24154;BME280;12312;53.362;-1.518;2023-03-20T15:24:26;57923.84;;;-139.99;100.00
24154;BME280;12312;53.362;-1.518;2023-03-20T15:27:11;57923.84;;;-139.99;100.00
24154;BME280;12312;53.362;-1.518;2023-03-20T15:29:59;57923.84;;;-139.99;100.00
24154;BME280;12312;53.362;-1.518;2023-03-20T15:32:45;57923.84;;;-139.99;100.00
24154;BME280;12312;53.362;-1.518;2023-03-20T15:35:31;57923.84;;;-139.99;100.00
24154;BME280;12312;53.362;-1.518;2023-03-20T15:38:15;57923.84;;;-139.99;100.00
24154;BME280;12312;53.362;-1.518;2023-03-20T15:41:06;57923.84;;;-139.99;100.00
24154;BME280;12312;53.362;-1.518;2023-03-20T15:43:51;57923.84;;;-139.99;100.00
24154;BME280;12312;53.362;-1.518;2023-03-20T15:46:35;57923.84;;;-139.99;100.00
24154;BME280;12312;53.362;-1.518;2023-03-20T15:49:20;57923.84;;;-139.99;100.00
24154;BME280;12312;53.362;-1.518;2023-03-20T15:52:09;57923.84;;;-139.99;100.00
24154;BME280;12312;53.362;-1.518;2023-03-20T15:54:59;57923.84;;;-139.99;100.00
24154;BME280;12312;53.362;-1.518;2023-03-20T15:57:46;57923.84;;;-139.99;100.00
24154;BME280;12312;53.362;-1.518;2023-03-20T16:00:46;57923.84;;;-139.99;100.00
24154;BME280;12312;53.362;-1.518;2023-03-20T16:03:33;57923.84;;;-139.99;100.00
24154;BME280;12312;53.362;-1.518;2023-03-20T16:06:23;57923.84;;;-139.99;100.00
24154;BME280;12312;53.362;-1.518;2023-03-20T16:09:07;57923.84;;;-139.99;100.00
24154;BME280;12312;53.362;-1.518;2023-03-20T16:11:59;57923.84;;;-139.99;100.00
24154;BME280;12312;53.362;-1.518;2023-03-20T16:14:48;57923.84;;;-139.99;100.00
24154;BME280;12312;53.362;-1.518;2023-03-20T16:17:33;57923.84;;;-139.99;100.00
24154;BME280;12312;53.362;-1.518;2023-03-20T16:20:19;57923.84;;;-139.99;100.00
24154;BME280;12312;53.362;-1.518;2023-03-20T16:23:06;57923.84;;;-139.99;100.00
24154;BME280;12312;53.362;-1.518;2023-03-20T16:25:56;57923.84;;;-139.99;100.00
24154;BME280;12312;53.362;-1.518;2023-03-20T16:28:44;57923.84;;;-139.99;100.00
24154;BME280;12312;53.362;-1.518;2023-03-20T16:31:34;57923.84;;;-139.99;100.00
24154;BME280;12312;53.362;-1.518;2023-03-20T16:34:25;57923.84;;;-139.99;100.00
24154;BME280;12312;53.362;-1.518;2023-03-20T16:37:28;57923.84;;;-139.99;100.00
24154;BME280;12312;53.362;-1.518;2023-03-20T16:43:05;57923.84;;;-139.99;100.00
24154;BME280;12312;53.362;-1.518;2023-03-20T16:45:54;57923.84;;;-139.99;100.00